Time;durP1;ratioP1;P1;durP2;ratioP2;P2;SDS_P1;SDS_P2;PMS_P1;PMS_P2;Temp;Humidity;BMP_temperature;BMP_pressure;BME280_temperature;BME280_humidity;BME280_pressure;Samples;Min_cycle;Max_cycle;Signal;HPM_P1;HPM_P2
2022/01/10 00:00:23;;;;;;;7.70;3.30;;;;;;;;;;4878129;29;20578;-74
2022/01/10 00:02:53;;;;;;;15.35;4.00;;;;;;;;;;4877195;29;20036;-73
2022/01/10 00:05:19;;;;;;;11.95;3.55;;;;;;;;;;4894454;29;20040;-74
2022/01/10 00:07:45;;;;;;;8.18;3.05;;;;;;;;;;4895158;29;20037;-74
2022/01/10 00:10:12;;;;;;;11.20;3.40;;;;;;;;;;4894761;29;20514;-73
2022/01/10 00:12:39;;;;;;;10.23;4.30;;;;;;;;;;4894883;29;20056;-73
2022/01/10 00:15:06;;;;;;;6.90;3.40;;;;;;;;;;4893586;29;20497;-73
2022/01/10 00:17:32;;;;;;;12.10;3.35;;;;;;;;;;4894310;29;20422;-73
2022/01/10 00:19:58;;;;;;;12.25;3.72;;;;;;;;;;4894376;29;20143;-73
2022/01/10 00:22:26;;;;;;;11.00;3.90;;;;;;;;;;4893181;29;20066;-72
2022/01/10 00:24:52;;;;;;;15.55;4.00;;;;;;;;;;4894176;29;20039;-73
2022/01/10 00:27:18;;;;;;;12.02;3.70;;;;;;;;;;4894213;29;20033;-73
2022/01/10 00:29:43;;;;;;;8.90;3.30;;;;;;;;;;4893705;29;20045;-72
2022/01/10 00:32:09;;;;;;;10.40;3.85;;;;;;;;;;4893188;29;20040;-73
2022/01/10 00:34:38;;;;;;;9.55;3.38;;;;;;;;;;4876740;29;20131;-73
2022/01/10 00:37:04;;;;;;;10.93;3.88;;;;;;;;;;4893921;29;20040;-73
2022/01/10 00:39:30;;;;;;;12.43;4.63;;;;;;;;;;4893513;29;20037;-73
2022/01/10 00:41:56;;;;;;;13.38;4.00;;;;;;;;;;4893374;29;20081;-73
2022/01/10 00:44:25;;;;;;;13.20;3.95;;;;;;;;;;4893409;29;20051;-73
2022/01/10 00:46:53;;;;;;;11.55;3.63;;;;;;;;;;4893607;29;20044;-73
2022/01/10 00:49:19;;;;;;;12.35;3.97;;;;;;;;;;4893958;29;20470;-73
2022/01/10 00:51:45;;;;;;;13.27;4.70;;;;;;;;;;4877349;29;20104;-73
2022/01/10 00:54:10;;;;;;;10.40;4.85;;;;;;;;;;4894386;29;20044;-73
2022/01/10 00:56:37;;;;;;;10.80;4.18;;;;;;;;;;4877137;29;20131;-73
2022/01/10 00:59:02;;;;;;;11.52;4.43;;;;;;;;;;4893291;29;20033;-73
2022/01/10 01:01:28;;;;;;;11.48;4.60;;;;;;;;;;4895182;29;20072;-72
2022/01/10 01:03:54;;;;;;;10.50;3.88;;;;;;;;;;4893621;29;20055;-73
2022/01/10 01:06:29;;;;;;;11.20;4.93;;;;;;;;;;4883549;29;20068;-73
2022/01/10 01:09:07;;;;;;;9.52;4.32;;;;;;;;;;4859573;29;20442;-73
2022/01/10 01:12:09;;;;;;;11.85;4.57;;;;;;;;;;4874213;29;20456;-73
2022/01/10 01:14:50;;;;;;;;;;;;;;;;;;4875352;29;20048;-73
2022/01/10 01:17:34;;;;;;;;;;;;;;;;;;4874937;29;20385;-73
2022/01/10 01:20:10;;;;;;;12.95;5.25;;;;;;;;;;4874469;29;20287;-72
2022/01/10 01:25:21;;;;;;;11.20;4.40;;;;;;;;;;4881030;29;20037;-72
2022/01/10 01:27:50;;;;;;;12.70;3.83;;;;;;;;;;4874391;29;20045;-73
2022/01/10 01:30:16;;;;;;;15.82;4.60;;;;;;;;;;4874394;29;20442;-74
2022/01/10 01:32:42;;;;;;;14.10;4.75;;;;;;;;;;4874462;29;20064;-73
2022/01/10 01:35:08;;;;;;;14.18;5.82;;;;;;;;;;4875762;29;20045;-72
2022/01/10 01:37:36;;;;;;;8.00;3.40;;;;;;;;;;4875351;29;20048;-72
2022/01/10 01:40:04;;;;;;;11.02;3.88;;;;;;;;;;4883480;29;20040;-72
2022/01/10 01:42:39;;;;;;;12.27;4.28;;;;;;;;;;4893805;29;20395;-73
2022/01/10 01:45:09;;;;;;;10.93;3.78;;;;;;;;;;4893860;29;20216;-73
2022/01/10 01:47:35;;;;;;;8.55;3.80;;;;;;;;;;4894170;29;20055;-73
2022/01/10 01:50:02;;;;;;;11.13;3.97;;;;;;;;;;4895944;29;20045;-72
2022/01/10 01:52:28;;;;;;;12.90;4.20;;;;;;;;;;4893848;29;20060;-72
2022/01/10 01:54:55;;;;;;;10.32;3.97;;;;;;;;;;4893817;29;20052;-72
2022/01/10 01:57:21;;;;;;;12.57;3.97;;;;;;;;;;4893786;29;20036;-73
2022/01/10 01:59:47;;;;;;;10.15;3.97;;;;;;;;;;4893823;29;20032;-73
2022/01/10 02:02:13;;;;;;;11.75;3.80;;;;;;;;;;4892533;29;20048;-72
2022/01/10 02:04:39;;;;;;;10.10;3.50;;;;;;;;;;4892475;29;20044;-73
2022/01/10 02:07:05;;;;;;;9.60;3.80;;;;;;;;;;4892110;29;20123;-73
2022/01/10 02:09:32;;;;;;;7.93;3.22;;;;;;;;;;4875868;29;20040;-72
2022/01/10 02:11:58;;;;;;;9.10;2.80;;;;;;;;;;4892445;29;20044;-72
2022/01/10 02:14:24;;;;;;;11.02;2.90;;;;;;;;;;4892154;29;20052;-72
2022/01/10 02:16:55;;;;;;;8.73;3.42;;;;;;;;;;4892559;29;20479;-72
2022/01/10 02:19:25;;;;;;;10.52;3.25;;;;;;;;;;4892074;29;20067;-73
2022/01/10 02:21:51;;;;;;;8.45;2.88;;;;;;;;;;4892953;29;20059;-73
2022/01/10 02:24:17;;;;;;;10.45;3.83;;;;;;;;;;4891706;29;20395;-73
2022/01/10 02:26:48;;;;;;;12.88;3.50;;;;;;;;;;4891999;29;20483;-73
2022/01/10 02:29:15;;;;;;;11.25;3.40;;;;;;;;;;4892098;29;20051;-72
2022/01/10 02:31:42;;;;;;;11.40;3.35;;;;;;;;;;4892125;29;20470;-73
2022/01/10 02:34:09;;;;;;;12.23;3.40;;;;;;;;;;4892406;29;20044;-72
2022/01/10 02:36:35;;;;;;;11.73;3.28;;;;;;;;;;4894947;29;20055;-73
2022/01/10 02:39:08;;;;;;;10.32;3.28;;;;;;;;;;4894723;29;20048;-73
2022/01/10 02:41:37;;;;;;;10.05;3.22;;;;;;;;;;4894897;29;20079;-72
2022/01/10 02:44:10;;;;;;;15.98;3.22;;;;;;;;;;4895259;29;20044;-73
2022/01/10 02:46:37;;;;;;;14.52;3.30;;;;;;;;;;4895420;29;20048;-73
2022/01/10 02:49:15;;;;;;;9.13;2.90;;;;;;;;;;4895062;29;20056;-73
2022/01/10 02:51:42;;;;;;;14.23;3.50;;;;;;;;;;4895867;29;20066;-73
2022/01/10 02:54:08;;;;;;;11.32;3.60;;;;;;;;;;4875497;29;20044;-73
2022/01/10 02:56:44;;;;;;;16.83;3.50;;;;;;;;;;4875825;29;20388;-72
2022/01/10 02:59:09;;;;;;;15.52;3.17;;;;;;;;;;4875815;29;20490;-73
2022/01/10 03:01:35;;;;;;;12.73;3.20;;;;;;;;;;4876102;29;20088;-73
2022/01/10 03:04:01;;;;;;;12.38;3.58;;;;;;;;;;4875997;29;20475;-73
2022/01/10 03:06:27;;;;;;;9.52;2.90;;;;;;;;;;4886267;29;20078;-73
2022/01/10 03:08:53;;;;;;;11.15;3.33;;;;;;;;;;4895053;29;20072;-73
2022/01/10 03:11:19;;;;;;;12.85;3.03;;;;;;;;;;4878668;29;20072;-73
2022/01/10 03:13:45;;;;;;;14.18;3.30;;;;;;;;;;4895534;29;20087;-73
2022/01/10 03:16:10;;;;;;;11.25;3.90;;;;;;;;;;4894963;29;20052;-73
2022/01/10 03:18:36;;;;;;;14.02;3.72;;;;;;;;;;4894936;29;20052;-73
2022/01/10 03:21:02;;;;;;;12.73;3.38;;;;;;;;;;4894208;29;20441;-73
2022/01/10 03:23:28;;;;;;;11.52;3.17;;;;;;;;;;4877245;29;20042;-72
2022/01/10 03:25:54;;;;;;;13.05;3.20;;;;;;;;;;4894146;29;20032;-72
2022/01/10 03:28:20;;;;;;;9.13;3.00;;;;;;;;;;4893775;29;20699;-72
2022/01/10 03:30:46;;;;;;;7.72;3.08;;;;;;;;;;4897139;29;20049;-72
2022/01/10 03:33:15;;;;;;;9.43;3.33;;;;;;;;;;4913093;29;20521;-72
2022/01/10 03:35:41;;;;;;;7.88;3.13;;;;;;;;;;4912974;29;20067;-72
2022/01/10 03:38:07;;;;;;;9.85;3.60;;;;;;;;;;4912466;29;20048;-73
2022/01/10 03:40:33;;;;;;;12.80;4.30;;;;;;;;;;4876978;23;20125;-72
2022/01/10 03:42:59;;;;;;;14.27;4.78;;;;;;;;;;4856527;29;20155;-72
2022/01/10 03:45:25;;;;;;;11.48;4.60;;;;;;;;;;4856368;29;20038;-72
2022/01/10 03:47:51;;;;;;;16.35;5.07;;;;;;;;;;4856750;29;20061;-72
2022/01/10 03:50:17;;;;;;;11.15;5.30;;;;;;;;;;4856806;29;20042;-72
2022/01/10 03:52:43;;;;;;;14.75;4.80;;;;;;;;;;4856807;29;20472;-73
2022/01/10 03:55:10;;;;;;;13.13;5.55;;;;;;;;;;4856784;29;20060;-74
2022/01/10 03:57:36;;;;;;;16.00;5.82;;;;;;;;;;4857047;29;20559;-74
2022/01/10 04:00:06;;;;;;;17.35;5.88;;;;;;;;;;4857169;29;20038;-74
2022/01/10 04:02:37;;;;;;;14.40;5.45;;;;;;;;;;4856996;29;20475;-74
2022/01/10 04:05:03;;;;;;;13.60;5.90;;;;;;;;;;4840674;29;20503;-74
2022/01/10 04:07:29;;;;;;;16.92;5.70;;;;;;;;;;4856261;29;20042;-74
2022/01/10 04:09:55;;;;;;;14.07;5.80;;;;;;;;;;4856529;29;20644;-74
2022/01/10 04:12:21;;;;;;;14.95;6.07;;;;;;;;;;4839284;29;20076;-73
2022/01/10 04:14:47;;;;;;;16.50;5.50;;;;;;;;;;4855096;29;20045;-74
2022/01/10 04:17:13;;;;;;;14.15;5.85;;;;;;;;;;4855727;29;20048;-74
2022/01/10 04:19:39;;;;;;;9.50;5.20;;;;;;;;;;4856089;29;20045;-73
2022/01/10 04:22:05;;;;;;;11.02;5.47;;;;;;;;;;4855429;29;20174;-73
2022/01/10 04:24:31;;;;;;;13.55;5.40;;;;;;;;;;4855469;29;20495;-73
2022/01/10 04:26:57;;;;;;;13.57;5.65;;;;;;;;;;4855993;29;20050;-73
2022/01/10 04:29:23;;;;;;;13.93;5.80;;;;;;;;;;4856440;29;20057;-74
2022/01/10 04:31:49;;;;;;;12.85;5.25;;;;;;;;;;4855868;29;20140;-72
2022/01/10 04:34:16;;;;;;;12.90;5.30;;;;;;;;;;4855739;29;20046;-73
2022/01/10 04:36:43;;;;;;;18.50;5.40;;;;;;;;;;4855793;29;20061;-73
2022/01/10 04:39:09;;;;;;;15.30;5.40;;;;;;;;;;4855735;29;20049;-74
2022/01/10 04:41:37;;;;;;;14.40;5.18;;;;;;;;;;4855782;29;20049;-73
2022/01/10 04:44:04;;;;;;;12.88;5.07;;;;;;;;;;4855840;29;20473;-73
2022/01/10 04:46:30;;;;;;;12.98;5.50;;;;;;;;;;4856360;29;20049;-73
2022/01/10 04:48:56;;;;;;;14.82;4.95;;;;;;;;;;4838729;29;20065;-74
2022/01/10 04:51:21;;;;;;;14.80;4.93;;;;;;;;;;4854773;29;20121;-74
2022/01/10 04:53:53;;;;;;;13.23;5.03;;;;;;;;;;4854794;29;20091;-74
2022/01/10 04:56:19;;;;;;;;;;;;;;;;;;4855507;29;20045;-74
2022/01/10 04:58:46;;;;;;;12.52;4.90;;;;;;;;;;4854728;29;19916;-74
2022/01/10 05:01:13;;;;;;;14.10;5.97;;;;;;;;;;4832084;29;20054;-74
2022/01/10 05:03:40;;;;;;;14.40;5.95;;;;;;;;;;4846330;29;20488;-73
2022/01/10 05:06:06;;;;;;;15.48;5.30;;;;;;;;;;4844051;29;20042;-73
2022/01/10 05:08:33;;;;;;;13.88;4.50;;;;;;;;;;4839585;29;20051;-74
2022/01/10 05:10:59;;;;;;;11.25;4.15;;;;;;;;;;4847400;29;20041;-74
2022/01/10 05:13:25;;;;;;;14.10;5.05;;;;;;;;;;4844832;29;20045;-74
2022/01/10 05:15:52;;;;;;;13.43;5.43;;;;;;;;;;4845000;29;20034;-73
2022/01/10 05:18:20;;;;;;;17.20;6.40;;;;;;;;;;4843442;29;20631;-74
2022/01/10 05:20:47;;;;;;;19.38;6.15;;;;;;;;;;4846298;29;20045;-74
2022/01/10 05:23:13;;;;;;;18.95;5.63;;;;;;;;;;4838199;29;20057;-74
2022/01/10 05:25:42;;;;;;;16.33;6.50;;;;;;;;;;4837671;29;20065;-74
2022/01/10 05:28:10;;;;;;;16.75;6.63;;;;;;;;;;4838094;29;20050;-72
2022/01/10 05:30:37;;;;;;;18.02;6.72;;;;;;;;;;4837396;29;20038;-72
2022/01/10 05:33:05;;;;;;;18.55;6.28;;;;;;;;;;4837017;29;20065;-73
2022/01/10 05:35:31;;;;;;;16.48;6.57;;;;;;;;;;4839512;29;20385;-73
2022/01/10 05:37:57;;;;;;;16.60;6.57;;;;;;;;;;4787859;29;20065;-73
2022/01/10 05:40:23;;;;;;;19.42;6.47;;;;;;;;;;4838207;29;20042;-73
2022/01/10 05:42:49;;;;;;;13.75;5.75;;;;;;;;;;4836917;29;20054;-73
2022/01/10 05:45:17;;;;;;;16.48;6.28;;;;;;;;;;4836909;29;20125;-73
2022/01/10 05:47:47;;;;;;;14.45;5.32;;;;;;;;;;4821465;29;20424;-73
2022/01/10 05:50:19;;;;;;;13.30;5.65;;;;;;;;;;4837398;29;20038;-73
2022/01/10 05:52:46;;;;;;;15.38;5.40;;;;;;;;;;4837148;29;20049;-73
2022/01/10 05:55:13;;;;;;;14.60;5.50;;;;;;;;;;4837808;29;20034;-74
2022/01/10 05:57:38;;;;;;;16.30;5.10;;;;;;;;;;4838463;29;20473;-73
2022/01/10 06:00:06;;;;;;;11.35;4.88;;;;;;;;;;4840557;29;20042;-74
2022/01/10 06:02:32;;;;;;;13.68;5.20;;;;;;;;;;4847683;29;20042;-74
2022/01/10 06:04:59;;;;;;;14.50;4.95;;;;;;;;;;4846647;29;20077;-74
2022/01/10 06:07:25;;;;;;;15.13;4.63;;;;;;;;;;4848206;29;20480;-74
2022/01/10 06:09:52;;;;;;;11.00;4.80;;;;;;;;;;4846278;29;20050;-73
2022/01/10 06:12:18;;;;;;;20.88;9.85;;;;;;;;;;4850478;29;20056;-73
2022/01/10 06:14:44;;;;;;;44.30;17.92;;;;;;;;;;4840736;29;20030;-72
2022/01/10 06:17:10;;;;;;;16.05;5.40;;;;;;;;;;4847908;29;20673;-74
2022/01/10 06:19:36;;;;;;;20.25;4.85;;;;;;;;;;4857686;29;20077;-73
2022/01/10 06:22:02;;;;;;;13.48;4.65;;;;;;;;;;4857963;29;20049;-74
2022/01/10 06:24:29;;;;;;;16.80;4.93;;;;;;;;;;4858017;29;20057;-73
2022/01/10 06:26:58;;;;;;;12.77;4.88;;;;;;;;;;4858180;29;20113;-73
2022/01/10 06:29:23;;;;;;;15.25;5.15;;;;;;;;;;4857572;29;20471;-73
2022/01/10 06:31:49;;;;;;;13.63;5.47;;;;;;;;;;4857114;29;20057;-74
2022/01/10 06:34:15;;;;;;;20.00;5.43;;;;;;;;;;4857399;29;20049;-73
2022/01/10 06:36:41;;;;;;;14.32;6.10;;;;;;;;;;4857992;29;20036;-73
2022/01/10 06:39:07;;;;;;;18.20;6.65;;;;;;;;;;4840955;29;20140;-73
2022/01/10 06:41:33;;;;;;;11.45;5.88;;;;;;;;;;4841196;29;20389;-73
2022/01/10 06:43:59;;;;;;;18.10;6.10;;;;;;;;;;4857939;29;20416;-71
2022/01/10 06:46:25;;;;;;;25.58;6.90;;;;;;;;;;4858214;29;20120;-73
2022/01/10 06:48:51;;;;;;;16.70;6.72;;;;;;;;;;4858163;29;20075;-73
2022/01/10 06:51:17;;;;;;;20.42;6.72;;;;;;;;;;4846382;29;20125;-76
2022/01/10 06:53:42;;;;;;;16.00;6.60;;;;;;;;;;4833864;29;20049;-76
2022/01/10 06:56:08;;;;;;;18.27;6.43;;;;;;;;;;4811629;29;20042;-75
2022/01/10 06:58:34;;;;;;;17.55;5.97;;;;;;;;;;4818473;29;20054;-75
2022/01/10 07:01:00;;;;;;;19.45;6.43;;;;;;;;;;4839335;29;20082;-75
2022/01/10 07:03:26;;;;;;;14.25;6.45;;;;;;;;;;4839927;29;20034;-75
2022/01/10 07:05:52;;;;;;;14.75;5.80;;;;;;;;;;4843882;29;20276;-75
2022/01/10 07:08:19;;;;;;;17.15;6.28;;;;;;;;;;4846368;29;20053;-76
2022/01/10 07:10:46;;;;;;;15.02;6.72;;;;;;;;;;4839316;29;20046;-75
2022/01/10 07:13:12;;;;;;;15.93;6.72;;;;;;;;;;4839271;29;20050;-75
2022/01/10 07:15:41;;;;;;;17.50;7.38;;;;;;;;;;4839408;29;20608;-75
2022/01/10 07:18:07;;;;;;;69.05;30.65;;;;;;;;;;4840566;29;20547;-75
2022/01/10 07:20:33;;;;;;;28.88;11.02;;;;;;;;;;4841712;29;20054;-76
2022/01/10 07:22:59;;;;;;;23.73;8.00;;;;;;;;;;4839198;29;20054;-79
2022/01/10 07:25:25;;;;;;;21.63;7.80;;;;;;;;;;4826784;29;20042;-77
2022/01/10 07:27:51;;;;;;;21.58;7.78;;;;;;;;;;4846958;29;20034;-77
2022/01/10 07:30:17;;;;;;;35.53;15.38;;;;;;;;;;4843063;29;20380;-78
2022/01/10 07:32:44;;;;;;;20.75;8.98;;;;;;;;;;4847313;29;20073;-76
2022/01/10 07:35:11;;;;;;;16.30;7.28;;;;;;;;;;4844740;29;20536;-76
2022/01/10 07:37:37;;;;;;;18.45;8.10;;;;;;;;;;4844408;29;20042;-76
2022/01/10 07:40:04;;;;;;;19.17;7.85;;;;;;;;;;4843266;29;20041;-77
2022/01/10 07:42:30;;;;;;;18.52;7.75;;;;;;;;;;4844788;29;20041;-75
2022/01/10 07:44:56;;;;;;;23.67;7.72;;;;;;;;;;4848968;29;20057;-76
2022/01/10 07:47:22;;;;;;;18.27;7.55;;;;;;;;;;4828708;29;20084;-75
2022/01/10 07:49:48;;;;;;;18.08;8.25;;;;;;;;;;4845355;29;20053;-75
2022/01/10 07:52:14;;;;;;;17.77;7.38;;;;;;;;;;4837793;29;20069;-74
2022/01/10 07:54:41;;;;;;;18.30;7.43;;;;;;;;;;4844702;29;20046;-75
2022/01/10 07:57:07;;;;;;;17.38;7.30;;;;;;;;;;4846938;29;20369;-74
2022/01/10 07:59:33;;;;;;;14.15;6.88;;;;;;;;;;4832647;29;20077;-74
2022/01/10 08:01:59;;;;;;;23.77;7.68;;;;;;;;;;4843283;29;20778;-74
2022/01/10 08:04:25;;;;;;;20.98;8.25;;;;;;;;;;4838268;29;20587;-76
2022/01/10 08:06:51;;;;;;;28.55;13.90;;;;;;;;;;4838047;29;20050;-76
2022/01/10 08:09:17;;;;;;;89.90;40.88;;;;;;;;;;4838736;29;20042;-75
2022/01/10 08:11:46;;;;;;;25.77;12.18;;;;;;;;;;4837106;29;20049;-75
2022/01/10 08:14:12;;;;;;;22.02;9.35;;;;;;;;;;4838584;29;20038;-75
2022/01/10 08:16:38;;;;;;;20.77;8.23;;;;;;;;;;4838700;29;20500;-75
2022/01/10 08:19:04;;;;;;;18.50;7.50;;;;;;;;;;4838747;29;20034;-75
2022/01/10 08:21:30;;;;;;;14.93;7.00;;;;;;;;;;4838625;29;20145;-75
2022/01/10 08:23:57;;;;;;;18.25;7.05;;;;;;;;;;4831596;29;20503;-75
2022/01/10 08:26:23;;;;;;;13.05;6.00;;;;;;;;;;4832781;29;20476;-75
2022/01/10 08:28:49;;;;;;;15.13;6.03;;;;;;;;;;4834337;29;20377;-75
2022/01/10 08:31:15;;;;;;;14.15;6.45;;;;;;;;;;4838169;29;20508;-75
2022/01/10 08:33:44;;;;;;;16.38;6.13;;;;;;;;;;4838517;29;20054;-75
2022/01/10 08:36:10;;;;;;;10.85;5.75;;;;;;;;;;4838545;29;20034;-75
2022/01/10 08:38:36;;;;;;;13.38;5.30;;;;;;;;;;4837727;29;20052;-75
2022/01/10 08:41:10;;;;;;;31.80;16.15;;;;;;;;;;4838094;29;20050;-75
2022/01/10 08:43:36;;;;;;;14.25;6.78;;;;;;;;;;4838268;29;20050;-75
2022/01/10 08:46:03;;;;;;;21.02;8.85;;;;;;;;;;4835538;29;20046;-75
2022/01/10 08:48:29;;;;;;;18.52;7.85;;;;;;;;;;4838170;29;20041;-73
2022/01/10 08:50:55;;;;;;;12.10;5.10;;;;;;;;;;4835651;29;20141;-74
2022/01/10 08:53:21;;;;;;;15.70;5.65;;;;;;;;;;4834412;29;20062;-74
2022/01/10 08:55:47;;;;;;;14.68;5.53;;;;;;;;;;4829756;29;20740;-74
2022/01/10 08:58:14;;;;;;;16.90;6.00;;;;;;;;;;4835542;29;20061;-74
2022/01/10 09:00:40;;;;;;;17.27;5.72;;;;;;;;;;4834380;29;20034;-74
2022/01/10 09:03:06;;;;;;;16.85;6.18;;;;;;;;;;4837650;29;20038;-74
2022/01/10 09:05:32;;;;;;;16.20;6.38;;;;;;;;;;4817811;29;20442;-75
2022/01/10 09:08:01;;;;;;;20.88;6.60;;;;;;;;;;4817364;29;20497;-75
2022/01/10 09:10:33;;;;;;;19.45;6.82;;;;;;;;;;4828198;29;20545;-75
2022/01/10 09:12:59;;;;;;;18.50;6.88;;;;;;;;;;4837839;29;20065;-74
2022/01/10 09:15:25;;;;;;;16.55;6.72;;;;;;;;;;4836818;29;20046;-74
2022/01/10 09:17:51;;;;;;;17.67;6.43;;;;;;;;;;4836481;29;20595;-74
2022/01/10 09:20:17;;;;;;;14.45;6.35;;;;;;;;;;4837757;29;20030;-73
2022/01/10 09:22:43;;;;;;;13.98;6.00;;;;;;;;;;4837854;29;20117;-73
2022/01/10 09:25:09;;;;;;;15.15;6.03;;;;;;;;;;4834493;29;20041;-73
2022/01/10 09:27:35;;;;;;;14.45;6.05;;;;;;;;;;4831691;29;20033;-74
2022/01/10 09:30:01;;;;;;;15.35;6.38;;;;;;;;;;4838364;29;20467;-74
2022/01/10 09:32:26;;;;;;;13.90;6.05;;;;;;;;;;4825414;29;20172;-74
2022/01/10 09:34:52;;;;;;;14.73;6.28;;;;;;;;;;4837208;29;20026;-74
2022/01/10 09:37:18;;;;;;;16.00;6.25;;;;;;;;;;4839084;29;20065;-74
2022/01/10 09:39:44;;;;;;;13.52;6.10;;;;;;;;;;4837354;29;20042;-74
2022/01/10 09:42:12;;;;;;;12.95;5.80;;;;;;;;;;4837692;29;20053;-75
2022/01/10 09:44:40;;;;;;;13.52;5.95;;;;;;;;;;4828254;29;20046;-74
2022/01/10 09:47:06;;;;;;;14.20;5.80;;;;;;;;;;4825736;29;20471;-74
2022/01/10 09:49:32;;;;;;;13.82;6.00;;;;;;;;;;4837378;29;20041;-74
2022/01/10 09:51:58;;;;;;;15.15;5.93;;;;;;;;;;4837182;29;20346;-75
2022/01/10 09:54:24;;;;;;;13.93;5.80;;;;;;;;;;4837310;29;20102;-74
2022/01/10 09:56:50;;;;;;;13.00;5.82;;;;;;;;;;4817871;29;20489;-74
2022/01/10 09:59:16;;;;;;;15.18;6.45;;;;;;;;;;4837023;29;20057;-75
2022/01/10 10:01:43;;;;;;;13.98;6.20;;;;;;;;;;4820946;29;20492;-75
2022/01/10 10:04:11;;;;;;;21.00;10.45;;;;;;;;;;4837137;29;20057;-75
2022/01/10 10:06:37;;;;;;;17.33;8.40;;;;;;;;;;4835384;29;20377;-75
2022/01/10 10:09:11;;;;;;;21.92;8.15;;;;;;;;;;4834894;29;20378;-76
2022/01/10 10:16:49;;;;;;;16.83;6.63;;;;;;;;;;5013176;23;20044;-75
2022/01/10 10:19:20;;;;;;;15.27;6.38;;;;;;;;;;4933491;29;20044;-78
2022/01/10 10:21:48;;;;;;;12.98;6.13;;;;;;;;;;4927567;29;20071;-76
2022/01/10 10:24:17;;;;;;;17.33;6.15;;;;;;;;;;4925072;29;20417;-76
2022/01/10 10:26:43;;;;;;;16.42;7.22;;;;;;;;;;4918124;29;20044;-76
2022/01/10 10:29:13;;;;;;;15.35;7.18;;;;;;;;;;4934230;29;20078;-74
2022/01/10 10:32:02;;;;;;;14.57;6.68;;;;;;;;;;4928361;29;20481;-74
2022/01/10 10:34:31;;;;;;;17.75;6.95;;;;;;;;;;4920353;29;20058;-73
2022/01/10 10:37:02;;;;;;;16.20;7.03;;;;;;;;;;4920240;29;20040;-74
2022/01/10 10:39:29;;;;;;;13.45;7.07;;;;;;;;;;4920223;29;20363;-74
2022/01/10 10:42:03;;;;;;;18.33;6.68;;;;;;;;;;4924315;29;20044;-74
2022/01/10 10:44:30;;;;;;;17.02;6.28;;;;;;;;;;4918277;29;20036;-73
2022/01/10 10:46:56;;;;;;;15.15;6.80;;;;;;;;;;4919940;29;20040;-73
2022/01/10 10:49:33;;;;;;;14.93;7.22;;;;;;;;;;4913734;29;20051;-73
2022/01/10 10:52:01;;;;;;;14.48;7.03;;;;;;;;;;4898728;29;20038;-74
2022/01/10 10:54:31;;;;;;;14.68;7.05;;;;;;;;;;4928881;29;20060;-74
2022/01/10 10:57:02;;;;;;;22.05;12.02;;;;;;;;;;4930193;29;20532;-74
2022/01/10 10:59:30;;;;;;;28.55;14.57;;;;;;;;;;4922127;29;20058;-73
2022/01/10 11:01:58;;;;;;;17.67;6.68;;;;;;;;;;4931695;29;20039;-75
2022/01/10 11:04:24;;;;;;;16.52;6.82;;;;;;;;;;4923885;29;20048;-74
2022/01/10 11:06:51;;;;;;;17.33;6.60;;;;;;;;;;4912624;29;20035;-74
2022/01/10 11:09:18;;;;;;;12.77;6.60;;;;;;;;;;4921764;29;20039;-74
2022/01/10 11:11:45;;;;;;;14.65;6.70;;;;;;;;;;4922611;29;20028;-75
2022/01/10 11:14:14;;;;;;;14.35;6.90;;;;;;;;;;4927727;29;20058;-74
2022/01/10 11:16:43;;;;;;;19.92;7.45;;;;;;;;;;4933890;29;20409;-75
2022/01/10 11:19:25;;;;;;;14.77;6.75;;;;;;;;;;4933142;29;20028;-74
2022/01/10 11:22:08;;;;;;;14.35;6.22;;;;;;;;;;4933418;29;20039;-74
2022/01/10 11:24:43;;;;;;;17.27;7.20;;;;;;;;;;4933392;29;20412;-74
2022/01/10 11:27:26;;;;;;;16.33;7.43;;;;;;;;;;4933516;29;20063;-73
2022/01/10 11:29:55;;;;;;;16.83;7.22;;;;;;;;;;4933361;29;20445;-73
2022/01/10 11:32:21;;;;;;;19.75;10.40;;;;;;;;;;4932097;29;20051;-74
2022/01/10 11:34:47;;;;;;;17.85;7.25;;;;;;;;;;4933418;29;20118;-73
2022/01/10 11:37:14;;;;;;;16.88;6.90;;;;;;;;;;4932992;29;20058;-74
2022/01/10 11:39:42;;;;;;;15.75;7.38;;;;;;;;;;4931173;29;20043;-73
2022/01/10 11:42:25;;;;;;;17.95;7.40;;;;;;;;;;4914662;29;20044;-76
2022/01/10 11:45:09;;;;;;;15.18;7.28;;;;;;;;;;4926660;29;20086;-78
2022/01/10 11:48:04;;;;;;;17.80;7.88;;;;;;;;;;4933630;29;20470;-77
2022/01/10 11:50:31;;;;;;;18.60;7.55;;;;;;;;;;4914276;29;20475;-77
2022/01/10 11:53:00;;;;;;;20.42;7.55;;;;;;;;;;4913313;29;20052;-77
2022/01/10 11:55:40;;;;;;;16.92;7.63;;;;;;;;;;4913140;29;20058;-77
2022/01/10 11:58:24;;;;;;;16.30;7.30;;;;;;;;;;4896954;29;20032;-77
2022/01/10 12:01:03;;;;;;;14.70;7.55;;;;;;;;;;4914077;29;20036;-77
2022/01/10 12:03:31;;;;;;;17.85;7.40;;;;;;;;;;4900528;29;20047;-77
2022/01/10 12:05:57;;;;;;;22.60;8.15;;;;;;;;;;4926375;29;20481;-77
2022/01/10 12:08:23;;;;;;;20.55;7.63;;;;;;;;;;4896052;29;20048;-77
2022/01/10 12:10:49;;;;;;;16.17;7.22;;;;;;;;;;4914338;29;20055;-77
2022/01/10 12:13:15;;;;;;;17.92;7.50;;;;;;;;;;4914965;29;20048;-77
2022/01/10 12:15:41;;;;;;;17.13;7.78;;;;;;;;;;4924206;29;20043;-77
2022/01/10 12:18:08;;;;;;;16.75;7.13;;;;;;;;;;4927122;29;20052;-77
2022/01/10 12:20:34;;;;;;;12.95;7.28;;;;;;;;;;4918320;29;20517;-77
2022/01/10 12:23:00;;;;;;;18.63;7.20;;;;;;;;;;4923978;29;20055;-77
2022/01/10 12:25:28;;;;;;;16.80;7.35;;;;;;;;;;4912803;29;20044;-77
2022/01/10 12:27:56;;;;;;;16.75;7.40;;;;;;;;;;4912591;29;20045;-77
2022/01/10 12:30:25;;;;;;;16.70;7.50;;;;;;;;;;4913878;29;20035;-77
2022/01/10 12:32:52;;;;;;;18.00;8.30;;;;;;;;;;4913946;29;20048;-77
2022/01/10 12:35:18;;;;;;;18.67;8.68;;;;;;;;;;4926641;29;20052;-77
2022/01/10 12:37:44;;;;;;;21.48;8.98;;;;;;;;;;4921918;29;20078;-77
2022/01/10 12:40:11;;;;;;;20.67;8.05;;;;;;;;;;4913170;29;20414;-77
2022/01/10 12:42:36;;;;;;;20.08;8.13;;;;;;;;;;4895903;29;20464;-77
2022/01/10 12:45:04;;;;;;;17.80;7.63;;;;;;;;;;4913216;29;20036;-77
2022/01/10 12:47:30;;;;;;;15.18;7.72;;;;;;;;;;4919187;29;20047;-77
2022/01/10 12:49:56;;;;;;;16.95;7.00;;;;;;;;;;4914081;29;20528;-77
2022/01/10 12:52:24;;;;;;;21.95;9.43;;;;;;;;;;4920611;29;20486;-76
2022/01/10 12:54:51;;;;;;;25.10;11.70;;;;;;;;;;4913426;29;20540;-76
2022/01/10 12:57:17;;;;;;;19.23;6.82;;;;;;;;;;4913435;29;20028;-76
2022/01/10 12:59:44;;;;;;;14.52;6.35;;;;;;;;;;4913645;29;20044;-76
2022/01/10 13:02:10;;;;;;;14.35;7.15;;;;;;;;;;4895945;29;20047;-77
2022/01/10 13:04:40;;;;;;;15.05;6.22;;;;;;;;;;4913204;29;20044;-73
2022/01/10 13:07:15;;;;;;;19.77;7.05;;;;;;;;;;4912528;29;20040;-73
2022/01/10 13:09:42;;;;;;;15.48;6.32;;;;;;;;;;4900469;29;20520;-74
2022/01/10 13:12:28;;;;;;;19.40;7.43;;;;;;;;;;4898552;29;20059;-72
2022/01/10 13:15:10;;;;;;;19.40;7.95;;;;;;;;;;4912099;29;20052;-74
2022/01/10 13:17:37;;;;;;;;;;;;;;;;;;4912557;29;20421;-73
2022/01/10 13:20:08;;;;;;;15.77;5.53;;;;;;;;;;4911232;29;19919;-74
2022/01/10 13:22:38;;;;;;;20.77;6.07;;;;;;;;;;4912263;29;20059;-75
2022/01/10 13:25:11;;;;;;;17.27;6.05;;;;;;;;;;4912319;29;20043;-74
2022/01/10 13:27:38;;;;;;;16.02;6.40;;;;;;;;;;4912284;29;20478;-75
2022/01/10 13:30:11;;;;;;;14.07;6.07;;;;;;;;;;4895725;29;20040;-74
2022/01/10 13:32:38;;;;;;;15.40;6.13;;;;;;;;;;4916843;29;20032;-74
2022/01/10 13:35:04;;;;;;;14.70;5.90;;;;;;;;;;4912152;29;20482;-74
2022/01/10 13:37:42;;;;;;;15.18;5.97;;;;;;;;;;4911191;29;20044;-74
2022/01/10 13:40:12;;;;;;;17.98;6.18;;;;;;;;;;4911932;29;20313;-74
2022/01/10 13:42:41;;;;;;;21.33;6.30;;;;;;;;;;4911413;29;20483;-74
2022/01/10 13:45:09;;;;;;;17.17;6.10;;;;;;;;;;4912220;29;20488;-74
2022/01/10 13:47:49;;;;;;;17.02;6.60;;;;;;;;;;4911968;29;20044;-74
2022/01/10 13:50:20;;;;;;;16.40;6.40;;;;;;;;;;4911596;29;20044;-73
2022/01/10 13:53:04;;;;;;;19.63;6.82;;;;;;;;;;4912126;29;20035;-73
2022/01/10 13:55:30;;;;;;;14.68;5.80;;;;;;;;;;4912588;29;20414;-74
2022/01/10 13:57:56;;;;;;;17.45;6.53;;;;;;;;;;4912656;29;20035;-73
2022/01/10 14:00:23;;;;;;;18.58;6.15;;;;;;;;;;4912473;29;20032;-73
2022/01/10 14:02:51;;;;;;;18.77;5.93;;;;;;;;;;4895155;29;20052;-73
2022/01/10 14:05:31;;;;;;;16.45;6.18;;;;;;;;;;4912058;29;20069;-73
2022/01/10 14:07:59;;;;;;;17.42;6.15;;;;;;;;;;4919036;29;20035;-73
2022/01/10 14:10:27;;;;;;;27.40;6.00;;;;;;;;;;4928004;29;20051;-73
2022/01/10 14:12:54;;;;;;;13.48;6.03;;;;;;;;;;4894677;29;20047;-73
2022/01/10 14:15:30;;;;;;;17.75;6.47;;;;;;;;;;4911710;29;20036;-74
2022/01/10 14:17:58;;;;;;;19.67;7.07;;;;;;;;;;4911751;29;20478;-73
2022/01/10 14:20:24;;;;;;;19.40;6.38;;;;;;;;;;4912105;29;20062;-73
2022/01/10 14:22:51;;;;;;;14.48;5.63;;;;;;;;;;4910884;29;20040;-73
2022/01/10 14:25:19;;;;;;;18.50;5.97;;;;;;;;;;4911172;29;20684;-74
2022/01/10 14:27:46;;;;;;;22.25;6.32;;;;;;;;;;4893803;29;20048;-74
2022/01/10 14:30:14;;;;;;;16.00;6.03;;;;;;;;;;4915866;29;20067;-74
2022/01/10 14:32:40;;;;;;;14.00;5.60;;;;;;;;;;4916144;29;20501;-73
2022/01/10 14:35:09;;;;;;;16.20;5.68;;;;;;;;;;4916446;29;20076;-75
2022/01/10 14:37:35;;;;;;;13.23;5.40;;;;;;;;;;4913375;29;20143;-73
2022/01/10 14:45:13;;;;;;;14.70;5.47;;;;;;;;;;4960669;23;20061;-74
2022/01/10 14:47:39;;;;;;;14.38;5.50;;;;;;;;;;4868144;29;20037;-74